sensor_id;sensor_type;location;lat;lon;timestamp;P1;durP1;ratioP1;P2;durP2;ratioP2
7162;SDS011;3623;47.098;15.446;2023-04-01T00:01:11;7.20;;;4.57;;
7162;SDS011;3623;47.098;15.446;2023-04-01T00:03:40;5.00;;;4.60;;
7162;SDS011;3623;47.098;15.446;2023-04-01T00:06:07;4.97;;;4.40;;
7162;SDS011;3623;47.098;15.446;2023-04-01T00:08:37;5.40;;;5.00;;
7162;SDS011;3623;47.098;15.446;2023-04-01T00:11:04;5.13;;;4.72;;
7162;SDS011;3623;47.098;15.446;2023-04-01T00:13:31;4.78;;;4.38;;
7162;SDS011;3623;47.098;15.446;2023-04-01T00:15:58;4.78;;;4.38;;
7162;SDS011;3623;47.098;15.446;2023-04-01T00:18:26;4.50;;;4.15;;
7162;SDS011;3623;47.098;15.446;2023-04-01T00:20:53;6.28;;;5.30;;
7162;SDS011;3623;47.098;15.446;2023-04-01T00:23:20;5.50;;;5.10;;
7162;SDS011;3623;47.098;15.446;2023-04-01T00:25:49;5.75;;;5.25;;
7162;SDS011;3623;47.098;15.446;2023-04-01T00:28:16;5.20;;;4.68;;
7162;SDS011;3623;47.098;15.446;2023-04-01T00:30:45;5.40;;;5.00;;
7162;SDS011;3623;47.098;15.446;2023-04-01T00:33:12;6.50;;;6.00;;
7162;SDS011;3623;47.098;15.446;2023-04-01T00:35:40;5.47;;;5.07;;
7162;SDS011;3623;47.098;15.446;2023-04-01T00:38:07;5.22;;;4.72;;
7162;SDS011;3623;47.098;15.446;2023-04-01T00:40:37;5.65;;;5.25;;
7162;SDS011;3623;47.098;15.446;2023-04-01T00:43:11;4.97;;;4.57;;
7162;SDS011;3623;47.098;15.446;2023-04-01T00:45:41;6.25;;;5.75;;
7162;SDS011;3623;47.098;15.446;2023-04-01T00:48:10;5.13;;;4.65;;
7162;SDS011;3623;47.098;15.446;2023-04-01T00:50:39;5.50;;;5.00;;
7162;SDS011;3623;47.098;15.446;2023-04-01T00:53:10;5.20;;;4.88;;
7162;SDS011;3623;47.098;15.446;2023-04-01T00:55:39;5.38;;;4.88;;
7162;SDS011;3623;47.098;15.446;2023-04-01T00:58:14;5.47;;;5.07;;
7162;SDS011;3623;47.098;15.446;2023-04-01T01:00:43;5.70;;;5.32;;
7162;SDS011;3623;47.098;15.446;2023-04-01T01:03:13;6.45;;;5.95;;
7162;SDS011;3623;47.098;15.446;2023-04-01T01:05:49;5.88;;;5.38;;
7162;SDS011;3623;47.098;15.446;2023-04-01T01:08:31;6.40;;;5.90;;
7162;SDS011;3623;47.098;15.446;2023-04-01T01:11:13;4.95;;;4.65;;
7162;SDS011;3623;47.098;15.446;2023-04-01T01:13:48;5.50;;;5.10;;
7162;SDS011;3623;47.098;15.446;2023-04-01T01:16:23;5.78;;;5.40;;
7162;SDS011;3623;47.098;15.446;2023-04-01T01:18:54;6.55;;;4.90;;
7162;SDS011;3623;47.098;15.446;2023-04-01T01:24:39;5.90;;;5.40;;
7162;SDS011;3623;47.098;15.446;2023-04-01T01:27:17;5.65;;;4.30;;
7162;SDS011;3623;47.098;15.446;2023-04-01T01:29:57;5.35;;;4.88;;
7162;SDS011;3623;47.098;15.446;2023-04-01T01:32:51;5.32;;;4.88;;
7162;SDS011;3623;47.098;15.446;2023-04-01T01:35:29;6.45;;;5.20;;
7162;SDS011;3623;47.098;15.446;2023-04-01T01:37:59;5.00;;;4.60;;
7162;SDS011;3623;47.098;15.446;2023-04-01T01:40:30;5.75;;;4.85;;
7162;SDS011;3623;47.098;15.446;2023-04-01T01:42:59;5.70;;;4.78;;
7162;SDS011;3623;47.098;15.446;2023-04-01T01:45:30;5.13;;;4.72;;
7162;SDS011;3623;47.098;15.446;2023-04-01T01:48:00;5.43;;;5.03;;
7162;SDS011;3623;47.098;15.446;2023-04-01T01:50:32;5.50;;;5.05;;
7162;SDS011;3623;47.098;15.446;2023-04-01T01:53:03;5.78;;;5.28;;
7162;SDS011;3623;47.098;15.446;2023-04-01T01:55:33;4.68;;;4.38;;
7162;SDS011;3623;47.098;15.446;2023-04-01T01:58:03;6.18;;;4.85;;
7162;SDS011;3623;47.098;15.446;2023-04-01T02:00:35;6.50;;;4.97;;
7162;SDS011;3623;47.098;15.446;2023-04-01T02:03:03;5.70;;;5.22;;
7162;SDS011;3623;47.098;15.446;2023-04-01T02:05:32;4.30;;;4.00;;
7162;SDS011;3623;47.098;15.446;2023-04-01T02:08:01;6.15;;;4.10;;
7162;SDS011;3623;47.098;15.446;2023-04-01T02:10:34;5.25;;;4.65;;
7162;SDS011;3623;47.098;15.446;2023-04-01T02:13:05;4.47;;;4.18;;
7162;SDS011;3623;47.098;15.446;2023-04-01T02:15:40;4.80;;;4.40;;
7162;SDS011;3623;47.098;15.446;2023-04-01T02:18:11;4.95;;;4.65;;
7162;SDS011;3623;47.098;15.446;2023-04-01T02:20:42;4.72;;;4.32;;
7162;SDS011;3623;47.098;15.446;2023-04-01T02:23:10;4.68;;;4.32;;
7162;SDS011;3623;47.098;15.446;2023-04-01T02:25:38;4.90;;;3.97;;
7162;SDS011;3623;47.098;15.446;2023-04-01T02:28:07;4.50;;;4.00;;
7162;SDS011;3623;47.098;15.446;2023-04-01T02:30:37;4.65;;;4.35;;
7162;SDS011;3623;47.098;15.446;2023-04-01T02:33:06;4.90;;;4.43;;
7162;SDS011;3623;47.098;15.446;2023-04-01T02:35:34;4.40;;;4.18;;
7162;SDS011;3623;47.098;15.446;2023-04-01T02:38:03;4.57;;;4.20;;
7162;SDS011;3623;47.098;15.446;2023-04-01T02:40:40;5.78;;;5.28;;
7162;SDS011;3623;47.098;15.446;2023-04-01T02:43:09;4.15;;;3.78;;
7162;SDS011;3623;47.098;15.446;2023-04-01T02:45:36;5.00;;;4.60;;
7162;SDS011;3623;47.098;15.446;2023-04-01T02:48:04;4.88;;;4.05;;
7162;SDS011;3623;47.098;15.446;2023-04-01T02:50:31;8.90;;;3.92;;
7162;SDS011;3623;47.098;15.446;2023-04-01T02:52:58;4.90;;;4.50;;
7162;SDS011;3623;47.098;15.446;2023-04-01T02:55:27;3.55;;;3.35;;
7162;SDS011;3623;47.098;15.446;2023-04-01T02:57:55;3.92;;;3.63;;
7162;SDS011;3623;47.098;15.446;2023-04-01T03:00:22;4.47;;;4.10;;
7162;SDS011;3623;47.098;15.446;2023-04-01T03:02:49;3.97;;;3.67;;
7162;SDS011;3623;47.098;15.446;2023-04-01T03:05:16;5.28;;;3.70;;
7162;SDS011;3623;47.098;15.446;2023-04-01T03:07:43;4.85;;;4.35;;
7162;SDS011;3623;47.098;15.446;2023-04-01T03:10:11;3.95;;;3.65;;
7162;SDS011;3623;47.098;15.446;2023-04-01T03:12:39;6.38;;;4.05;;
7162;SDS011;3623;47.098;15.446;2023-04-01T03:15:08;4.55;;;4.25;;
7162;SDS011;3623;47.098;15.446;2023-04-01T03:17:37;4.15;;;3.90;;
7162;SDS011;3623;47.098;15.446;2023-04-01T03:20:05;3.35;;;3.17;;
7162;SDS011;3623;47.098;15.446;2023-04-01T03:22:33;3.60;;;3.40;;
7162;SDS011;3623;47.098;15.446;2023-04-01T03:25:00;3.53;;;3.22;;
7162;SDS011;3623;47.098;15.446;2023-04-01T03:27:28;4.47;;;4.18;;
7162;SDS011;3623;47.098;15.446;2023-04-01T03:29:56;4.07;;;3.78;;
7162;SDS011;3623;47.098;15.446;2023-04-01T03:32:23;4.20;;;3.92;;
7162;SDS011;3623;47.098;15.446;2023-04-01T03:34:50;7.15;;;4.22;;
7162;SDS011;3623;47.098;15.446;2023-04-01T03:37:17;3.80;;;3.53;;
7162;SDS011;3623;47.098;15.446;2023-04-01T03:39:44;3.50;;;3.30;;
7162;SDS011;3623;47.098;15.446;2023-04-01T03:42:11;3.58;;;3.38;;
7162;SDS011;3623;47.098;15.446;2023-04-01T03:44:38;3.50;;;3.30;;
7162;SDS011;3623;47.098;15.446;2023-04-01T03:47:07;4.25;;;3.65;;
7162;SDS011;3623;47.098;15.446;2023-04-01T03:49:35;4.28;;;3.80;;
7162;SDS011;3623;47.098;15.446;2023-04-01T03:52:02;4.13;;;3.92;;
7162;SDS011;3623;47.098;15.446;2023-04-01T03:54:29;4.10;;;3.90;;
7162;SDS011;3623;47.098;15.446;2023-04-01T03:56:57;4.40;;;4.00;;
7162;SDS011;3623;47.098;15.446;2023-04-01T03:59:24;6.90;;;4.20;;
7162;SDS011;3623;47.098;15.446;2023-04-01T04:01:51;4.38;;;3.90;;
7162;SDS011;3623;47.098;15.446;2023-04-01T04:04:19;4.45;;;4.05;;
7162;SDS011;3623;47.098;15.446;2023-04-01T04:06:46;4.18;;;3.88;;
7162;SDS011;3623;47.098;15.446;2023-04-01T04:09:14;4.72;;;4.22;;
7162;SDS011;3623;47.098;15.446;2023-04-01T04:11:41;3.90;;;3.70;;
7162;SDS011;3623;47.098;15.446;2023-04-01T04:14:08;6.03;;;4.00;;
7162;SDS011;3623;47.098;15.446;2023-04-01T04:16:35;6.00;;;3.63;;
7162;SDS011;3623;47.098;15.446;2023-04-01T04:19:03;4.13;;;3.92;;
7162;SDS011;3623;47.098;15.446;2023-04-01T04:21:31;4.30;;;3.95;;
7162;SDS011;3623;47.098;15.446;2023-04-01T04:23:58;4.55;;;4.15;;
7162;SDS011;3623;47.098;15.446;2023-04-01T04:26:25;3.70;;;3.45;;
7162;SDS011;3623;47.098;15.446;2023-04-01T04:28:53;4.28;;;3.70;;
7162;SDS011;3623;47.098;15.446;2023-04-01T04:31:21;4.90;;;4.50;;
7162;SDS011;3623;47.098;15.446;2023-04-01T04:33:49;5.07;;;3.72;;
7162;SDS011;3623;47.098;15.446;2023-04-01T04:36:16;4.82;;;4.32;;
7162;SDS011;3623;47.098;15.446;2023-04-01T04:38:45;4.63;;;4.40;;
7162;SDS011;3623;47.098;15.446;2023-04-01T04:41:13;4.38;;;4.03;;
7162;SDS011;3623;47.098;15.446;2023-04-01T04:43:48;8.70;;;7.90;;
7162;SDS011;3623;47.098;15.446;2023-04-01T04:46:16;6.30;;;5.70;;
7162;SDS011;3623;47.098;15.446;2023-04-01T04:48:43;6.07;;;5.57;;
7162;SDS011;3623;47.098;15.446;2023-04-01T04:51:12;5.38;;;4.90;;
7162;SDS011;3623;47.098;15.446;2023-04-01T04:53:41;5.43;;;4.70;;
7162;SDS011;3623;47.098;15.446;2023-04-01T04:56:09;4.32;;;4.03;;
7162;SDS011;3623;47.098;15.446;2023-04-01T04:58:37;5.43;;;4.50;;
7162;SDS011;3623;47.098;15.446;2023-04-01T05:01:05;4.88;;;4.47;;
7162;SDS011;3623;47.098;15.446;2023-04-01T05:03:33;4.65;;;4.25;;
7162;SDS011;3623;47.098;15.446;2023-04-01T05:06:00;4.95;;;4.65;;
7162;SDS011;3623;47.098;15.446;2023-04-01T05:08:27;4.38;;;4.05;;
7162;SDS011;3623;47.098;15.446;2023-04-01T05:10:54;4.82;;;4.53;;
7162;SDS011;3623;47.098;15.446;2023-04-01T05:13:23;4.40;;;4.10;;
7162;SDS011;3623;47.098;15.446;2023-04-01T05:15:50;4.80;;;4.40;;
7162;SDS011;3623;47.098;15.446;2023-04-01T05:18:17;4.22;;;3.92;;
7162;SDS011;3623;47.098;15.446;2023-04-01T05:20:47;5.90;;;3.85;;
7162;SDS011;3623;47.098;15.446;2023-04-01T05:23:15;4.57;;;4.28;;
7162;SDS011;3623;47.098;15.446;2023-04-01T05:25:42;4.30;;;4.00;;
7162;SDS011;3623;47.098;15.446;2023-04-01T05:28:10;4.43;;;4.03;;
7162;SDS011;3623;47.098;15.446;2023-04-01T05:30:40;4.78;;;4.43;;
7162;SDS011;3623;47.098;15.446;2023-04-01T05:33:08;3.60;;;3.30;;
7162;SDS011;3623;47.098;15.446;2023-04-01T05:35:36;5.22;;;4.05;;
7162;SDS011;3623;47.098;15.446;2023-04-01T05:38:04;4.18;;;3.88;;
7162;SDS011;3623;47.098;15.446;2023-04-01T05:40:31;4.47;;;3.90;;
7162;SDS011;3623;47.098;15.446;2023-04-01T05:42:59;3.60;;;3.30;;
7162;SDS011;3623;47.098;15.446;2023-04-01T05:45:26;3.45;;;3.15;;
7162;SDS011;3623;47.098;15.446;2023-04-01T05:47:54;3.40;;;3.20;;
7162;SDS011;3623;47.098;15.446;2023-04-01T05:50:21;3.83;;;3.60;;
7162;SDS011;3623;47.098;15.446;2023-04-01T05:52:49;3.25;;;3.05;;
7162;SDS011;3623;47.098;15.446;2023-04-01T05:55:16;3.38;;;3.17;;
7162;SDS011;3623;47.098;15.446;2023-04-01T05:57:44;2.90;;;2.70;;
7162;SDS011;3623;47.098;15.446;2023-04-01T06:00:13;3.25;;;2.95;;
7162;SDS011;3623;47.098;15.446;2023-04-01T06:02:41;3.25;;;3.05;;
7162;SDS011;3623;47.098;15.446;2023-04-01T06:05:13;3.75;;;3.45;;
7162;SDS011;3623;47.098;15.446;2023-04-01T06:07:43;3.65;;;3.35;;
7162;SDS011;3623;47.098;15.446;2023-04-01T06:10:11;4.20;;;3.90;;
7162;SDS011;3623;47.098;15.446;2023-04-01T06:12:44;4.82;;;4.43;;
7162;SDS011;3623;47.098;15.446;2023-04-01T06:15:20;5.55;;;3.53;;
7162;SDS011;3623;47.098;15.446;2023-04-01T06:20:57;6.22;;;3.28;;
7162;SDS011;3623;47.098;15.446;2023-04-01T06:23:34;3.50;;;3.20;;
7162;SDS011;3623;47.098;15.446;2023-04-01T06:26:17;4.05;;;3.65;;
7162;SDS011;3623;47.098;15.446;2023-04-01T06:29:06;3.45;;;2.97;;
7162;SDS011;3623;47.098;15.446;2023-04-01T06:32:10;3.30;;;3.00;;
7162;SDS011;3623;47.098;15.446;2023-04-01T06:34:55;3.03;;;2.83;;
7162;SDS011;3623;47.098;15.446;2023-04-01T06:37:42;2.60;;;2.50;;
7162;SDS011;3623;47.098;15.446;2023-04-01T06:40:40;3.13;;;2.85;;
7162;SDS011;3623;47.098;15.446;2023-04-01T06:43:29;3.35;;;2.90;;
7162;SDS011;3623;47.098;15.446;2023-04-01T06:46:07;3.80;;;3.42;;
7162;SDS011;3623;47.098;15.446;2023-04-01T06:48:47;3.53;;;3.20;;
7162;SDS011;3623;47.098;15.446;2023-04-01T06:51:35;4.45;;;2.78;;
7162;SDS011;3623;47.098;15.446;2023-04-01T06:54:11;2.90;;;2.70;;
7162;SDS011;3623;47.098;15.446;2023-04-01T06:56:44;2.70;;;2.50;;
7162;SDS011;3623;47.098;15.446;2023-04-01T06:59:15;2.25;;;2.15;;
7162;SDS011;3623;47.098;15.446;2023-04-01T07:01:45;2.53;;;2.42;;
7162;SDS011;3623;47.098;15.446;2023-04-01T07:04:16;2.60;;;2.42;;
7162;SDS011;3623;47.098;15.446;2023-04-01T07:06:47;2.83;;;2.72;;
7162;SDS011;3623;47.098;15.446;2023-04-01T07:09:21;4.20;;;2.85;;
7162;SDS011;3623;47.098;15.446;2023-04-01T07:11:51;2.65;;;2.53;;
7162;SDS011;3623;47.098;15.446;2023-04-01T07:14:24;3.60;;;2.80;;
7162;SDS011;3623;47.098;15.446;2023-04-01T07:16:56;2.67;;;2.47;;
7162;SDS011;3623;47.098;15.446;2023-04-01T07:19:27;2.03;;;1.83;;
7162;SDS011;3623;47.098;15.446;2023-04-01T07:21:58;1.65;;;1.55;;
7162;SDS011;3623;47.098;15.446;2023-04-01T07:24:31;2.20;;;2.10;;
7162;SDS011;3623;47.098;15.446;2023-04-01T07:27:00;2.42;;;2.28;;
7162;SDS011;3623;47.098;15.446;2023-04-01T07:29:27;2.10;;;2.00;;
7162;SDS011;3623;47.098;15.446;2023-04-01T07:32:13;4.50;;;1.67;;
7162;SDS011;3623;47.098;15.446;2023-04-01T07:34:55;5.35;;;1.60;;
7162;SDS011;3623;47.098;15.446;2023-04-01T07:37:34;2.92;;;2.40;;
7162;SDS011;3623;47.098;15.446;2023-04-01T07:40:13;1.70;;;1.60;;
7162;SDS011;3623;47.098;15.446;2023-04-01T07:42:55;2.20;;;2.10;;
7162;SDS011;3623;47.098;15.446;2023-04-01T07:45:35;3.95;;;3.65;;
7162;SDS011;3623;47.098;15.446;2023-04-01T07:48:10;1.77;;;1.67;;
7162;SDS011;3623;47.098;15.446;2023-04-01T07:50:46;1.80;;;1.70;;
7162;SDS011;3623;47.098;15.446;2023-04-01T07:53:22;7.55;;;1.80;;
7162;SDS011;3623;47.098;15.446;2023-04-01T07:56:00;1.63;;;1.52;;
7162;SDS011;3623;47.098;15.446;2023-04-01T07:58:34;1.67;;;1.57;;
7162;SDS011;3623;47.098;15.446;2023-04-01T08:01:10;1.60;;;1.50;;
7162;SDS011;3623;47.098;15.446;2023-04-01T08:03:48;1.03;;;1.03;;
7162;SDS011;3623;47.098;15.446;2023-04-01T08:06:28;1.17;;;1.17;;
7162;SDS011;3623;47.098;15.446;2023-04-01T08:09:00;1.20;;;1.10;;
7162;SDS011;3623;47.098;15.446;2023-04-01T08:11:37;1.33;;;1.33;;
7162;SDS011;3623;47.098;15.446;2023-04-01T08:14:15;1.85;;;1.75;;
7162;SDS011;3623;47.098;15.446;2023-04-01T08:16:49;1.43;;;1.33;;
7162;SDS011;3623;47.098;15.446;2023-04-01T08:19:25;1.63;;;1.30;;
7162;SDS011;3623;47.098;15.446;2023-04-01T08:22:02;1.58;;;1.48;;
7162;SDS011;3623;47.098;15.446;2023-04-01T08:24:35;1.93;;;1.50;;
7162;SDS011;3623;47.098;15.446;2023-04-01T08:27:09;1.20;;;1.20;;
7162;SDS011;3623;47.098;15.446;2023-04-01T08:29:42;1.60;;;1.50;;
7162;SDS011;3623;47.098;15.446;2023-04-01T08:32:15;1.83;;;1.40;;
7162;SDS011;3623;47.098;15.446;2023-04-01T08:34:47;1.53;;;1.43;;
7162;SDS011;3623;47.098;15.446;2023-04-01T08:37:22;1.20;;;1.10;;
7162;SDS011;3623;47.098;15.446;2023-04-01T08:39:55;1.00;;;0.90;;
7162;SDS011;3623;47.098;15.446;2023-04-01T08:42:35;1.60;;;1.50;;
7162;SDS011;3623;47.098;15.446;2023-04-01T08:45:23;1.43;;;1.33;;
7162;SDS011;3623;47.098;15.446;2023-04-01T08:48:13;1.27;;;1.27;;
7162;SDS011;3623;47.098;15.446;2023-04-01T08:50:57;1.63;;;1.40;;
7162;SDS011;3623;47.098;15.446;2023-04-01T08:53:50;2.07;;;1.80;;
7162;SDS011;3623;47.098;15.446;2023-04-01T08:56:40;4.43;;;2.60;;
7162;SDS011;3623;47.098;15.446;2023-04-01T08:59:33;2.30;;;2.10;;
7162;SDS011;3623;47.098;15.446;2023-04-01T09:08:14;2.07;;;1.90;;
7162;SDS011;3623;47.098;15.446;2023-04-01T09:16:55;2.30;;;2.20;;
7162;SDS011;3623;47.098;15.446;2023-04-01T09:19:46;1.83;;;1.73;;
7162;SDS011;3623;47.098;15.446;2023-04-01T09:22:27;2.27;;;1.77;;
7162;SDS011;3623;47.098;15.446;2023-04-01T09:27:57;2.57;;;2.33;;
7162;SDS011;3623;47.098;15.446;2023-04-01T09:30:48;4.00;;;2.93;;
7162;SDS011;3623;47.098;15.446;2023-04-01T09:39:37;1.30;;;1.20;;
7162;SDS011;3623;47.098;15.446;2023-04-01T09:45:07;1.60;;;1.60;;
7162;SDS011;3623;47.098;15.446;2023-04-01T09:47:43;1.70;;;1.53;;
7162;SDS011;3623;47.098;15.446;2023-04-01T09:50:27;1.60;;;1.50;;
7162;SDS011;3623;47.098;15.446;2023-04-01T09:53:06;1.10;;;1.10;;
7162;SDS011;3623;47.098;15.446;2023-04-01T10:02:09;1.33;;;1.03;;
7162;SDS011;3623;47.098;15.446;2023-04-01T10:05:12;1.60;;;1.50;;
7162;SDS011;3623;47.098;15.446;2023-04-01T10:11:41;3.87;;;2.10;;
7162;SDS011;3623;47.098;15.446;2023-04-01T10:20:46;4.07;;;2.40;;
7162;SDS011;3623;47.098;15.446;2023-04-01T10:26:47;1.90;;;1.80;;
7162;SDS011;3623;47.098;15.446;2023-04-01T10:29:41;0.50;;;0.50;;
7162;SDS011;3623;47.098;15.446;2023-04-01T10:35:41;0.60;;;0.60;;
7162;SDS011;3623;47.098;15.446;2023-04-01T10:41:53;0.70;;;0.60;;
7162;SDS011;3623;47.098;15.446;2023-04-01T10:44:51;0.80;;;0.80;;
7162;SDS011;3623;47.098;15.446;2023-04-01T10:47:39;2.70;;;1.03;;
7162;SDS011;3623;47.098;15.446;2023-04-01T10:53:31;0.50;;;0.50;;
7162;SDS011;3623;47.098;15.446;2023-04-01T10:56:32;0.80;;;0.80;;
7162;SDS011;3623;47.098;15.446;2023-04-01T11:09:03;2.80;;;0.70;;
7162;SDS011;3623;47.098;15.446;2023-04-01T11:14:59;0.70;;;0.70;;
7162;SDS011;3623;47.098;15.446;2023-04-01T11:17:57;0.80;;;0.80;;
7162;SDS011;3623;47.098;15.446;2023-04-01T11:24:01;0.50;;;0.50;;
7162;SDS011;3623;47.098;15.446;2023-04-01T11:26:51;0.70;;;0.70;;
7162;SDS011;3623;47.098;15.446;2023-04-01T11:29:30;0.50;;;0.50;;
7162;SDS011;3623;47.098;15.446;2023-04-01T11:32:10;0.50;;;0.50;;
7162;SDS011;3623;47.098;15.446;2023-04-01T11:34:53;0.77;;;0.77;;
7162;SDS011;3623;47.098;15.446;2023-04-01T11:37:30;0.60;;;0.60;;
7162;SDS011;3623;47.098;15.446;2023-04-01T11:40:09;1.17;;;0.60;;
7162;SDS011;3623;47.098;15.446;2023-04-01T11:42:49;0.70;;;0.70;;
7162;SDS011;3623;47.098;15.446;2023-04-01T11:45:23;0.50;;;0.50;;
7162;SDS011;3623;47.098;15.446;2023-04-01T11:48:21;0.60;;;0.60;;
7162;SDS011;3623;47.098;15.446;2023-04-01T11:53:59;1.70;;;0.60;;
7162;SDS011;3623;47.098;15.446;2023-04-01T11:56:35;0.50;;;0.50;;
7162;SDS011;3623;47.098;15.446;2023-04-01T12:02:20;1.07;;;0.40;;
7162;SDS011;3623;47.098;15.446;2023-04-01T12:04:58;0.63;;;0.63;;
7162;SDS011;3623;47.098;15.446;2023-04-01T12:07:48;0.50;;;0.50;;
7162;SDS011;3623;47.098;15.446;2023-04-01T12:10:28;1.57;;;0.53;;
7162;SDS011;3623;47.098;15.446;2023-04-01T12:13:07;0.50;;;0.50;;
7162;SDS011;3623;47.098;15.446;2023-04-01T12:15:49;0.53;;;0.53;;
7162;SDS011;3623;47.098;15.446;2023-04-01T12:18:30;1.77;;;1.10;;
7162;SDS011;3623;47.098;15.446;2023-04-01T12:21:06;0.63;;;0.63;;
7162;SDS011;3623;47.098;15.446;2023-04-01T12:23:51;0.50;;;0.50;;
7162;SDS011;3623;47.098;15.446;2023-04-01T12:26:35;0.60;;;0.50;;
7162;SDS011;3623;47.098;15.446;2023-04-01T12:29:18;0.60;;;0.50;;
7162;SDS011;3623;47.098;15.446;2023-04-01T12:32:02;2.00;;;0.50;;
7162;SDS011;3623;47.098;15.446;2023-04-01T12:34:52;0.60;;;0.60;;
7162;SDS011;3623;47.098;15.446;2023-04-01T12:37:41;0.83;;;0.83;;
7162;SDS011;3623;47.098;15.446;2023-04-01T12:40:38;0.60;;;0.60;;
7162;SDS011;3623;47.098;15.446;2023-04-01T12:43:32;0.50;;;0.50;;
7162;SDS011;3623;47.098;15.446;2023-04-01T12:46:19;0.50;;;0.50;;
7162;SDS011;3623;47.098;15.446;2023-04-01T12:49:01;0.53;;;0.53;;
7162;SDS011;3623;47.098;15.446;2023-04-01T12:57:29;0.50;;;0.50;;
7162;SDS011;3623;47.098;15.446;2023-04-01T13:00:14;1.10;;;0.93;;
7162;SDS011;3623;47.098;15.446;2023-04-01T13:03:07;0.60;;;0.60;;
7162;SDS011;3623;47.098;15.446;2023-04-01T13:05:53;0.50;;;0.50;;
7162;SDS011;3623;47.098;15.446;2023-04-01T13:08:41;8.63;;;0.70;;
7162;SDS011;3623;47.098;15.446;2023-04-01T13:11:17;0.50;;;0.50;;
7162;SDS011;3623;47.098;15.446;2023-04-01T13:14:09;0.73;;;0.70;;
7162;SDS011;3623;47.098;15.446;2023-04-01T13:16:50;0.50;;;0.50;;
7162;SDS011;3623;47.098;15.446;2023-04-01T13:19:24;0.63;;;0.63;;
7162;SDS011;3623;47.098;15.446;2023-04-01T13:21:58;1.00;;;0.67;;
7162;SDS011;3623;47.098;15.446;2023-04-01T13:24:37;0.40;;;0.40;;
7162;SDS011;3623;47.098;15.446;2023-04-01T13:27:14;0.60;;;0.60;;
7162;SDS011;3623;47.098;15.446;2023-04-01T13:29:46;0.60;;;0.60;;
7162;SDS011;3623;47.098;15.446;2023-04-01T13:32:26;0.60;;;0.60;;
7162;SDS011;3623;47.098;15.446;2023-04-01T13:35:08;0.63;;;0.50;;
7162;SDS011;3623;47.098;15.446;2023-04-01T13:37:52;0.60;;;0.60;;
7162;SDS011;3623;47.098;15.446;2023-04-01T13:40:32;0.60;;;0.60;;
7162;SDS011;3623;47.098;15.446;2023-04-01T13:43:04;0.80;;;0.80;;
7162;SDS011;3623;47.098;15.446;2023-04-01T13:45:41;0.60;;;0.60;;
7162;SDS011;3623;47.098;15.446;2023-04-01T13:48:24;0.60;;;0.60;;
7162;SDS011;3623;47.098;15.446;2023-04-01T13:51:01;0.60;;;0.60;;
7162;SDS011;3623;47.098;15.446;2023-04-01T13:53:59;0.60;;;0.60;;
7162;SDS011;3623;47.098;15.446;2023-04-01T13:56:41;0.63;;;0.50;;
7162;SDS011;3623;47.098;15.446;2023-04-01T13:59:25;0.60;;;0.50;;
7162;SDS011;3623;47.098;15.446;2023-04-01T14:02:14;1.03;;;1.03;;
7162;SDS011;3623;47.098;15.446;2023-04-01T14:04:53;0.60;;;0.60;;
7162;SDS011;3623;47.098;15.446;2023-04-01T14:07:47;0.60;;;0.60;;
7162;SDS011;3623;47.098;15.446;2023-04-01T14:10:23;0.50;;;0.50;;
7162;SDS011;3623;47.098;15.446;2023-04-01T14:13:01;0.50;;;0.50;;
7162;SDS011;3623;47.098;15.446;2023-04-01T14:15:46;0.50;;;0.50;;
7162;SDS011;3623;47.098;15.446;2023-04-01T14:18:33;0.50;;;0.50;;
7162;SDS011;3623;47.098;15.446;2023-04-01T14:21:21;0.50;;;0.50;;
7162;SDS011;3623;47.098;15.446;2023-04-01T14:24:24;0.60;;;0.60;;
7162;SDS011;3623;47.098;15.446;2023-04-01T14:27:15;0.47;;;0.43;;
7162;SDS011;3623;47.098;15.446;2023-04-01T14:29:58;0.40;;;0.40;;
7162;SDS011;3623;47.098;15.446;2023-04-01T14:32:48;0.50;;;0.50;;
7162;SDS011;3623;47.098;15.446;2023-04-01T14:35:22;1.00;;;0.50;;
7162;SDS011;3623;47.098;15.446;2023-04-01T14:40:54;0.50;;;0.50;;
7162;SDS011;3623;47.098;15.446;2023-04-01T14:43:33;0.60;;;0.40;;
7162;SDS011;3623;47.098;15.446;2023-04-01T14:46:23;0.50;;;0.50;;
7162;SDS011;3623;47.098;15.446;2023-04-01T14:49:15;0.67;;;0.60;;
7162;SDS011;3623;47.098;15.446;2023-04-01T14:51:48;0.50;;;0.50;;
7162;SDS011;3623;47.098;15.446;2023-04-01T14:54:17;0.60;;;0.60;;
7162;SDS011;3623;47.098;15.446;2023-04-01T14:56:49;0.60;;;0.60;;
7162;SDS011;3623;47.098;15.446;2023-04-01T14:59:25;0.50;;;0.47;;
7162;SDS011;3623;47.098;15.446;2023-04-01T15:01:55;0.60;;;0.60;;
7162;SDS011;3623;47.098;15.446;2023-04-01T15:04:37;0.60;;;0.60;;
7162;SDS011;3623;47.098;15.446;2023-04-01T15:07:21;0.53;;;0.53;;
7162;SDS011;3623;47.098;15.446;2023-04-01T15:10:12;1.33;;;0.60;;
7162;SDS011;3623;47.098;15.446;2023-04-01T15:12:54;0.50;;;0.50;;
7162;SDS011;3623;47.098;15.446;2023-04-01T15:15:35;0.53;;;0.50;;
7162;SDS011;3623;47.098;15.446;2023-04-01T15:18:13;0.50;;;0.40;;
7162;SDS011;3623;47.098;15.446;2023-04-01T15:21:00;0.50;;;0.40;;
7162;SDS011;3623;47.098;15.446;2023-04-01T15:23:42;1.53;;;0.40;;
7162;SDS011;3623;47.098;15.446;2023-04-01T15:26:20;0.70;;;0.53;;
7162;SDS011;3623;47.098;15.446;2023-04-01T15:29:01;0.40;;;0.40;;
7162;SDS011;3623;47.098;15.446;2023-04-01T15:31:47;0.50;;;0.50;;
7162;SDS011;3623;47.098;15.446;2023-04-01T15:34:26;0.90;;;0.50;;
7162;SDS011;3623;47.098;15.446;2023-04-01T15:37:04;0.50;;;0.50;;
7162;SDS011;3623;47.098;15.446;2023-04-01T15:39:41;1.00;;;0.60;;
7162;SDS011;3623;47.098;15.446;2023-04-01T15:42:29;0.60;;;0.53;;
7162;SDS011;3623;47.098;15.446;2023-04-01T15:48:01;0.90;;;0.60;;
7162;SDS011;3623;47.098;15.446;2023-04-01T15:50:43;0.43;;;0.43;;
7162;SDS011;3623;47.098;15.446;2023-04-01T15:53:21;0.50;;;0.50;;
7162;SDS011;3623;47.098;15.446;2023-04-01T15:55:57;0.40;;;0.40;;
7162;SDS011;3623;47.098;15.446;2023-04-01T15:58:40;0.50;;;0.50;;
7162;SDS011;3623;47.098;15.446;2023-04-01T16:01:23;0.80;;;0.70;;
7162;SDS011;3623;47.098;15.446;2023-04-01T16:03:56;0.50;;;0.50;;
7162;SDS011;3623;47.098;15.446;2023-04-01T16:06:34;0.50;;;0.50;;
7162;SDS011;3623;47.098;15.446;2023-04-01T16:09:21;0.60;;;0.60;;
7162;SDS011;3623;47.098;15.446;2023-04-01T16:12:01;0.60;;;0.60;;
7162;SDS011;3623;47.098;15.446;2023-04-01T16:14:36;0.50;;;0.50;;
7162;SDS011;3623;47.098;15.446;2023-04-01T16:17:24;2.00;;;0.50;;
7162;SDS011;3623;47.098;15.446;2023-04-01T16:19:59;0.50;;;0.50;;
7162;SDS011;3623;47.098;15.446;2023-04-01T16:22:33;0.63;;;0.57;;
7162;SDS011;3623;47.098;15.446;2023-04-01T16:28:04;0.70;;;0.70;;
7162;SDS011;3623;47.098;15.446;2023-04-01T16:30:42;0.60;;;0.60;;
7162;SDS011;3623;47.098;15.446;2023-04-01T16:33:15;0.80;;;0.80;;
7162;SDS011;3623;47.098;15.446;2023-04-01T16:35:50;0.97;;;0.80;;
7162;SDS011;3623;47.098;15.446;2023-04-01T16:38:23;0.60;;;0.60;;
7162;SDS011;3623;47.098;15.446;2023-04-01T16:41:00;4.30;;;1.03;;
7162;SDS011;3623;47.098;15.446;2023-04-01T16:43:38;0.83;;;0.83;;
7162;SDS011;3623;47.098;15.446;2023-04-01T16:46:17;1.00;;;0.87;;
7162;SDS011;3623;47.098;15.446;2023-04-01T16:48:58;1.43;;;0.60;;
7162;SDS011;3623;47.098;15.446;2023-04-01T16:51:32;0.80;;;0.80;;
7162;SDS011;3623;47.098;15.446;2023-04-01T16:54:05;0.80;;;0.80;;
7162;SDS011;3623;47.098;15.446;2023-04-01T16:56:40;0.67;;;0.67;;
7162;SDS011;3623;47.098;15.446;2023-04-01T16:59:14;1.33;;;0.80;;
7162;SDS011;3623;47.098;15.446;2023-04-01T17:01:47;0.90;;;0.90;;
7162;SDS011;3623;47.098;15.446;2023-04-01T17:04:23;0.80;;;0.80;;
7162;SDS011;3623;47.098;15.446;2023-04-01T17:07:00;1.00;;;0.90;;
7162;SDS011;3623;47.098;15.446;2023-04-01T17:09:38;1.23;;;0.90;;
7162;SDS011;3623;47.098;15.446;2023-04-01T17:12:30;1.83;;;0.80;;
7162;SDS011;3623;47.098;15.446;2023-04-01T17:15:03;0.90;;;0.63;;
7162;SDS011;3623;47.098;15.446;2023-04-01T17:17:43;0.77;;;0.73;;
7162;SDS011;3623;47.098;15.446;2023-04-01T17:20:25;0.80;;;0.80;;
7162;SDS011;3623;47.098;15.446;2023-04-01T17:22:59;0.80;;;0.80;;
7162;SDS011;3623;47.098;15.446;2023-04-01T17:25:39;1.33;;;0.80;;
7162;SDS011;3623;47.098;15.446;2023-04-01T17:28:24;0.87;;;0.87;;
7162;SDS011;3623;47.098;15.446;2023-04-01T17:31:01;1.83;;;1.10;;